sensor_id;sensor_type;location;lat;lon;timestamp;P1;durP1;ratioP1;P2;durP2;ratioP2
15536;SDS011;7870;52.448;13.270;2024-02-14T00:00:07;9.50;;;8.40;;
15536;SDS011;7870;52.448;13.270;2024-02-14T00:02:45;12.40;;;9.02;;
15536;SDS011;7870;52.448;13.270;2024-02-14T00:05:16;10.18;;;7.53;;
15536;SDS011;7870;52.448;13.270;2024-02-14T00:07:43;9.15;;;7.97;;
15536;SDS011;7870;52.448;13.270;2024-02-14T00:10:09;10.40;;;8.25;;
15536;SDS011;7870;52.448;13.270;2024-02-14T00:12:36;12.75;;;8.90;;
15536;SDS011;7870;52.448;13.270;2024-02-14T00:15:06;9.80;;;7.95;;
15536;SDS011;7870;52.448;13.270;2024-02-14T00:17:33;12.10;;;8.35;;
15536;SDS011;7870;52.448;13.270;2024-02-14T00:20:01;15.02;;;10.30;;
15536;SDS011;7870;52.448;13.270;2024-02-14T00:22:29;10.35;;;8.23;;
15536;SDS011;7870;52.448;13.270;2024-02-14T00:24:56;9.70;;;7.78;;
15536;SDS011;7870;52.448;13.270;2024-02-14T00:27:23;11.30;;;7.97;;
15536;SDS011;7870;52.448;13.270;2024-02-14T00:29:50;10.05;;;7.32;;
15536;SDS011;7870;52.448;13.270;2024-02-14T00:32:17;10.05;;;6.50;;
15536;SDS011;7870;52.448;13.270;2024-02-14T00:34:44;9.82;;;8.02;;
15536;SDS011;7870;52.448;13.270;2024-02-14T00:37:12;8.48;;;6.72;;
15536;SDS011;7870;52.448;13.270;2024-02-14T00:39:38;8.25;;;7.05;;
15536;SDS011;7870;52.448;13.270;2024-02-14T00:42:05;10.52;;;7.82;;
15536;SDS011;7870;52.448;13.270;2024-02-14T00:44:32;9.63;;;7.45;;
15536;SDS011;7870;52.448;13.270;2024-02-14T00:46:58;8.98;;;7.25;;
15536;SDS011;7870;52.448;13.270;2024-02-14T00:49:28;10.25;;;7.65;;
15536;SDS011;7870;52.448;13.270;2024-02-14T00:51:55;9.70;;;7.18;;
15536;SDS011;7870;52.448;13.270;2024-02-14T00:54:22;11.93;;;8.25;;
15536;SDS011;7870;52.448;13.270;2024-02-14T00:56:48;13.88;;;8.50;;
15536;SDS011;7870;52.448;13.270;2024-02-14T00:59:15;9.20;;;6.97;;
15536;SDS011;7870;52.448;13.270;2024-02-14T01:01:43;11.13;;;7.45;;
15536;SDS011;7870;52.448;13.270;2024-02-14T01:04:10;10.23;;;8.10;;
15536;SDS011;7870;52.448;13.270;2024-02-14T01:06:37;7.93;;;6.95;;
15536;SDS011;7870;52.448;13.270;2024-02-14T01:09:04;9.27;;;7.00;;
15536;SDS011;7870;52.448;13.270;2024-02-14T01:11:31;10.68;;;7.72;;
15536;SDS011;7870;52.448;13.270;2024-02-14T01:13:57;10.18;;;7.72;;
15536;SDS011;7870;52.448;13.270;2024-02-14T01:16:24;13.38;;;8.05;;
15536;SDS011;7870;52.448;13.270;2024-02-14T01:18:52;9.13;;;7.43;;
15536;SDS011;7870;52.448;13.270;2024-02-14T01:21:19;11.75;;;9.50;;
15536;SDS011;7870;52.448;13.270;2024-02-14T01:23:46;11.32;;;7.38;;
15536;SDS011;7870;52.448;13.270;2024-02-14T01:26:12;11.90;;;9.07;;
15536;SDS011;7870;52.448;13.270;2024-02-14T01:28:39;11.77;;;8.48;;
15536;SDS011;7870;52.448;13.270;2024-02-14T01:31:05;10.93;;;8.48;;
15536;SDS011;7870;52.448;13.270;2024-02-14T01:33:32;11.93;;;8.32;;
15536;SDS011;7870;52.448;13.270;2024-02-14T01:35:59;10.60;;;7.60;;
15536;SDS011;7870;52.448;13.270;2024-02-14T01:38:26;11.05;;;6.97;;
15536;SDS011;7870;52.448;13.270;2024-02-14T01:40:52;10.23;;;7.45;;
15536;SDS011;7870;52.448;13.270;2024-02-14T01:43:19;8.98;;;6.93;;
15536;SDS011;7870;52.448;13.270;2024-02-14T01:45:46;10.43;;;7.45;;
15536;SDS011;7870;52.448;13.270;2024-02-14T01:48:12;11.18;;;8.13;;
15536;SDS011;7870;52.448;13.270;2024-02-14T01:50:44;9.75;;;8.27;;
15536;SDS011;7870;52.448;13.270;2024-02-14T01:53:12;12.27;;;7.75;;
15536;SDS011;7870;52.448;13.270;2024-02-14T01:55:39;10.85;;;7.70;;
15536;SDS011;7870;52.448;13.270;2024-02-14T01:58:06;11.23;;;7.35;;
15536;SDS011;7870;52.448;13.270;2024-02-14T02:00:32;8.65;;;7.53;;
15536;SDS011;7870;52.448;13.270;2024-02-14T02:03:04;9.80;;;7.28;;
15536;SDS011;7870;52.448;13.270;2024-02-14T02:05:31;11.48;;;7.60;;
15536;SDS011;7870;52.448;13.270;2024-02-14T02:07:57;10.80;;;7.85;;
15536;SDS011;7870;52.448;13.270;2024-02-14T02:10:24;10.30;;;7.40;;
15536;SDS011;7870;52.448;13.270;2024-02-14T02:12:57;11.98;;;8.07;;
15536;SDS011;7870;52.448;13.270;2024-02-14T02:15:25;8.20;;;7.07;;
15536;SDS011;7870;52.448;13.270;2024-02-14T02:17:52;7.47;;;6.05;;
15536;SDS011;7870;52.448;13.270;2024-02-14T02:20:19;8.98;;;7.35;;
15536;SDS011;7870;52.448;13.270;2024-02-14T02:22:46;7.30;;;6.38;;
15536;SDS011;7870;52.448;13.270;2024-02-14T02:25:14;10.80;;;7.03;;
15536;SDS011;7870;52.448;13.270;2024-02-14T02:27:41;10.60;;;7.75;;
15536;SDS011;7870;52.448;13.270;2024-02-14T02:30:07;10.50;;;6.45;;
15536;SDS011;7870;52.448;13.270;2024-02-14T02:32:34;8.98;;;7.47;;
15536;SDS011;7870;52.448;13.270;2024-02-14T02:35:01;9.57;;;6.68;;
15536;SDS011;7870;52.448;13.270;2024-02-14T02:37:28;13.38;;;8.75;;
15536;SDS011;7870;52.448;13.270;2024-02-14T02:39:56;7.82;;;7.03;;
15536;SDS011;7870;52.448;13.270;2024-02-14T02:42:23;13.43;;;8.07;;
15536;SDS011;7870;52.448;13.270;2024-02-14T02:44:50;8.85;;;6.45;;
15536;SDS011;7870;52.448;13.270;2024-02-14T02:47:17;9.68;;;6.65;;
15536;SDS011;7870;52.448;13.270;2024-02-14T02:49:43;7.80;;;6.57;;
15536;SDS011;7870;52.448;13.270;2024-02-14T02:52:10;11.52;;;6.40;;
15536;SDS011;7870;52.448;13.270;2024-02-14T02:54:37;11.13;;;8.38;;
15536;SDS011;7870;52.448;13.270;2024-02-14T02:57:07;10.57;;;8.17;;
15536;SDS011;7870;52.448;13.270;2024-02-14T02:59:34;9.93;;;7.00;;
15536;SDS011;7870;52.448;13.270;2024-02-14T03:02:02;9.38;;;6.88;;
15536;SDS011;7870;52.448;13.270;2024-02-14T03:04:29;9.30;;;7.25;;
15536;SDS011;7870;52.448;13.270;2024-02-14T03:07:17;11.68;;;7.93;;
15536;SDS011;7870;52.448;13.270;2024-02-14T03:09:43;9.30;;;6.90;;
15536;SDS011;7870;52.448;13.270;2024-02-14T03:12:10;12.25;;;9.07;;
15536;SDS011;7870;52.448;13.270;2024-02-14T03:14:37;9.10;;;7.60;;
15536;SDS011;7870;52.448;13.270;2024-02-14T03:17:04;9.30;;;7.53;;
15536;SDS011;7870;52.448;13.270;2024-02-14T03:19:31;8.68;;;6.45;;
15536;SDS011;7870;52.448;13.270;2024-02-14T03:21:59;9.10;;;7.05;;
15536;SDS011;7870;52.448;13.270;2024-02-14T03:24:26;8.20;;;6.85;;
15536;SDS011;7870;52.448;13.270;2024-02-14T03:26:52;10.35;;;7.68;;
15536;SDS011;7870;52.448;13.270;2024-02-14T03:29:20;9.20;;;7.50;;
15536;SDS011;7870;52.448;13.270;2024-02-14T03:31:47;10.48;;;7.55;;
15536;SDS011;7870;52.448;13.270;2024-02-14T03:34:14;9.93;;;7.55;;
15536;SDS011;7870;52.448;13.270;2024-02-14T03:36:41;14.10;;;8.25;;
15536;SDS011;7870;52.448;13.270;2024-02-14T03:39:09;10.20;;;7.70;;
15536;SDS011;7870;52.448;13.270;2024-02-14T03:41:36;9.38;;;7.88;;
15536;SDS011;7870;52.448;13.270;2024-02-14T03:44:03;8.52;;;6.88;;
15536;SDS011;7870;52.448;13.270;2024-02-14T03:46:30;11.07;;;7.53;;
15536;SDS011;7870;52.448;13.270;2024-02-14T03:48:56;9.60;;;7.28;;
15536;SDS011;7870;52.448;13.270;2024-02-14T03:51:23;9.80;;;7.70;;
15536;SDS011;7870;52.448;13.270;2024-02-14T03:53:50;8.15;;;6.68;;
15536;SDS011;7870;52.448;13.270;2024-02-14T03:56:17;7.78;;;6.80;;
15536;SDS011;7870;52.448;13.270;2024-02-14T03:58:44;10.10;;;8.15;;
15536;SDS011;7870;52.448;13.270;2024-02-14T04:01:10;9.57;;;7.45;;
15536;SDS011;7870;52.448;13.270;2024-02-14T04:03:37;8.32;;;6.90;;
15536;SDS011;7870;52.448;13.270;2024-02-14T04:06:04;8.35;;;6.50;;
15536;SDS011;7870;52.448;13.270;2024-02-14T04:08:31;9.88;;;6.95;;
15536;SDS011;7870;52.448;13.270;2024-02-14T04:10:57;9.57;;;7.80;;
15536;SDS011;7870;52.448;13.270;2024-02-14T04:13:25;7.75;;;5.80;;
15536;SDS011;7870;52.448;13.270;2024-02-14T04:15:52;8.95;;;6.95;;
15536;SDS011;7870;52.448;13.270;2024-02-14T04:18:19;9.82;;;6.68;;
15536;SDS011;7870;52.448;13.270;2024-02-14T04:20:46;11.00;;;6.53;;
15536;SDS011;7870;52.448;13.270;2024-02-14T04:23:12;9.25;;;6.45;;
15536;SDS011;7870;52.448;13.270;2024-02-14T04:25:39;9.32;;;6.28;;
15536;SDS011;7870;52.448;13.270;2024-02-14T04:28:06;7.78;;;6.00;;
15536;SDS011;7870;52.448;13.270;2024-02-14T04:30:33;11.85;;;6.90;;
15536;SDS011;7870;52.448;13.270;2024-02-14T04:32:59;7.35;;;6.55;;
15536;SDS011;7870;52.448;13.270;2024-02-14T04:35:27;9.15;;;7.00;;
15536;SDS011;7870;52.448;13.270;2024-02-14T04:37:54;8.20;;;5.80;;
15536;SDS011;7870;52.448;13.270;2024-02-14T04:40:21;6.72;;;5.50;;
15536;SDS011;7870;52.448;13.270;2024-02-14T04:42:48;10.07;;;6.38;;
15536;SDS011;7870;52.448;13.270;2024-02-14T04:45:14;8.30;;;6.25;;
15536;SDS011;7870;52.448;13.270;2024-02-14T04:47:41;9.38;;;6.03;;
15536;SDS011;7870;52.448;13.270;2024-02-14T04:50:08;10.55;;;6.70;;
15536;SDS011;7870;52.448;13.270;2024-02-14T04:52:35;8.70;;;6.45;;
15536;SDS011;7870;52.448;13.270;2024-02-14T04:55:02;11.23;;;7.00;;
15536;SDS011;7870;52.448;13.270;2024-02-14T04:57:29;9.73;;;7.60;;
15536;SDS011;7870;52.448;13.270;2024-02-14T04:59:57;9.55;;;7.13;;
15536;SDS011;7870;52.448;13.270;2024-02-14T05:02:23;10.88;;;6.95;;
15536;SDS011;7870;52.448;13.270;2024-02-14T05:04:50;8.75;;;6.47;;
15536;SDS011;7870;52.448;13.270;2024-02-14T05:07:17;10.20;;;6.35;;
15536;SDS011;7870;52.448;13.270;2024-02-14T05:09:43;9.70;;;6.25;;
15536;SDS011;7870;52.448;13.270;2024-02-14T05:12:10;8.23;;;6.63;;
15536;SDS011;7870;52.448;13.270;2024-02-14T05:14:38;9.88;;;6.53;;
15536;SDS011;7870;52.448;13.270;2024-02-14T05:17:04;8.57;;;6.60;;
15536;SDS011;7870;52.448;13.270;2024-02-14T05:19:31;10.85;;;6.97;;
15536;SDS011;7870;52.448;13.270;2024-02-14T05:21:59;8.77;;;6.45;;
15536;SDS011;7870;52.448;13.270;2024-02-14T05:24:25;8.77;;;5.93;;
15536;SDS011;7870;52.448;13.270;2024-02-14T05:26:53;8.45;;;6.65;;
15536;SDS011;7870;52.448;13.270;2024-02-14T05:29:20;9.95;;;7.13;;
15536;SDS011;7870;52.448;13.270;2024-02-14T05:31:47;8.43;;;6.72;;
15536;SDS011;7870;52.448;13.270;2024-02-14T05:34:15;10.45;;;7.07;;
15536;SDS011;7870;52.448;13.270;2024-02-14T05:36:42;8.43;;;6.18;;
15536;SDS011;7870;52.448;13.270;2024-02-14T05:39:09;8.73;;;5.60;;
15536;SDS011;7870;52.448;13.270;2024-02-14T05:41:36;8.30;;;5.82;;
15536;SDS011;7870;52.448;13.270;2024-02-14T05:44:03;11.75;;;6.82;;
15536;SDS011;7870;52.448;13.270;2024-02-14T05:46:30;7.93;;;5.70;;
15536;SDS011;7870;52.448;13.270;2024-02-14T05:48:56;9.18;;;6.28;;
15536;SDS011;7870;52.448;13.270;2024-02-14T05:51:24;7.55;;;5.82;;
15536;SDS011;7870;52.448;13.270;2024-02-14T05:53:51;9.48;;;6.70;;
15536;SDS011;7870;52.448;13.270;2024-02-14T05:56:17;8.90;;;5.93;;
15536;SDS011;7870;52.448;13.270;2024-02-14T05:58:44;9.95;;;6.88;;
15536;SDS011;7870;52.448;13.270;2024-02-14T06:01:10;8.30;;;6.28;;
15536;SDS011;7870;52.448;13.270;2024-02-14T06:03:37;10.88;;;6.90;;
15536;SDS011;7870;52.448;13.270;2024-02-14T06:06:04;8.27;;;6.57;;
15536;SDS011;7870;52.448;13.270;2024-02-14T06:08:30;13.00;;;7.90;;
15536;SDS011;7870;52.448;13.270;2024-02-14T06:10:57;13.18;;;7.80;;
15536;SDS011;7870;52.448;13.270;2024-02-14T06:13:23;8.30;;;6.13;;
15536;SDS011;7870;52.448;13.270;2024-02-14T06:15:50;9.07;;;6.43;;
15536;SDS011;7870;52.448;13.270;2024-02-14T06:18:16;9.18;;;6.82;;
15536;SDS011;7870;52.448;13.270;2024-02-14T06:20:43;9.40;;;6.72;;
15536;SDS011;7870;52.448;13.270;2024-02-14T06:23:10;8.98;;;6.15;;
15536;SDS011;7870;52.448;13.270;2024-02-14T06:25:36;10.18;;;6.70;;
15536;SDS011;7870;52.448;13.270;2024-02-14T06:28:03;11.23;;;6.35;;
15536;SDS011;7870;52.448;13.270;2024-02-14T06:30:29;9.07;;;7.03;;
15536;SDS011;7870;52.448;13.270;2024-02-14T06:32:59;10.20;;;6.32;;
15536;SDS011;7870;52.448;13.270;2024-02-14T06:35:28;12.60;;;6.28;;
15536;SDS011;7870;52.448;13.270;2024-02-14T06:37:56;9.25;;;6.00;;
15536;SDS011;7870;52.448;13.270;2024-02-14T06:40:30;11.15;;;7.28;;
15536;SDS011;7870;52.448;13.270;2024-02-14T06:42:56;9.10;;;6.28;;
15536;SDS011;7870;52.448;13.270;2024-02-14T06:45:27;12.02;;;6.40;;
15536;SDS011;7870;52.448;13.270;2024-02-14T06:47:54;11.68;;;6.40;;
15536;SDS011;7870;52.448;13.270;2024-02-14T06:50:21;10.43;;;6.30;;
15536;SDS011;7870;52.448;13.270;2024-02-14T06:52:48;9.63;;;5.72;;
15536;SDS011;7870;52.448;13.270;2024-02-14T06:55:14;8.85;;;5.40;;
15536;SDS011;7870;52.448;13.270;2024-02-14T06:57:41;7.90;;;5.80;;
15536;SDS011;7870;52.448;13.270;2024-02-14T07:00:08;7.45;;;6.07;;
15536;SDS011;7870;52.448;13.270;2024-02-14T07:02:35;9.13;;;5.90;;
15536;SDS011;7870;52.448;13.270;2024-02-14T07:05:02;9.50;;;5.32;;
15536;SDS011;7870;52.448;13.270;2024-02-14T07:07:28;10.43;;;6.10;;
15536;SDS011;7870;52.448;13.270;2024-02-14T07:09:55;6.78;;;4.95;;
15536;SDS011;7870;52.448;13.270;2024-02-14T07:12:21;6.63;;;5.18;;
15536;SDS011;7870;52.448;13.270;2024-02-14T07:14:48;7.05;;;5.00;;
15536;SDS011;7870;52.448;13.270;2024-02-14T07:17:15;9.10;;;5.53;;
15536;SDS011;7870;52.448;13.270;2024-02-14T07:19:41;6.90;;;5.28;;
15536;SDS011;7870;52.448;13.270;2024-02-14T07:22:14;10.18;;;5.03;;
15536;SDS011;7870;52.448;13.270;2024-02-14T07:24:42;10.45;;;5.32;;
15536;SDS011;7870;52.448;13.270;2024-02-14T07:27:08;7.90;;;5.10;;
15536;SDS011;7870;52.448;13.270;2024-02-14T07:29:37;8.95;;;5.10;;
15536;SDS011;7870;52.448;13.270;2024-02-14T07:32:04;7.50;;;4.47;;
15536;SDS011;7870;52.448;13.270;2024-02-14T07:34:30;8.80;;;5.00;;
15536;SDS011;7870;52.448;13.270;2024-02-14T07:36:57;8.25;;;4.93;;
15536;SDS011;7870;52.448;13.270;2024-02-14T07:39:24;7.03;;;4.47;;
15536;SDS011;7870;52.448;13.270;2024-02-14T07:41:51;6.70;;;4.10;;
15536;SDS011;7870;52.448;13.270;2024-02-14T07:44:17;8.00;;;4.20;;
15536;SDS011;7870;52.448;13.270;2024-02-14T07:46:44;10.02;;;4.25;;
15536;SDS011;7870;52.448;13.270;2024-02-14T07:49:10;5.60;;;4.05;;
15536;SDS011;7870;52.448;13.270;2024-02-14T07:51:37;7.20;;;4.80;;
15536;SDS011;7870;52.448;13.270;2024-02-14T07:54:05;5.75;;;3.83;;
15536;SDS011;7870;52.448;13.270;2024-02-14T07:56:32;5.57;;;3.35;;
15536;SDS011;7870;52.448;13.270;2024-02-14T07:58:59;7.50;;;4.03;;
15536;SDS011;7870;52.448;13.270;2024-02-14T08:01:26;6.40;;;4.00;;
15536;SDS011;7870;52.448;13.270;2024-02-14T08:03:53;7.05;;;4.63;;
15536;SDS011;7870;52.448;13.270;2024-02-14T08:06:19;6.00;;;3.78;;
15536;SDS011;7870;52.448;13.270;2024-02-14T08:08:46;6.60;;;4.30;;
15536;SDS011;7870;52.448;13.270;2024-02-14T08:11:15;6.65;;;4.03;;
15536;SDS011;7870;52.448;13.270;2024-02-14T08:13:42;6.72;;;4.03;;
15536;SDS011;7870;52.448;13.270;2024-02-14T08:16:08;5.50;;;3.78;;
15536;SDS011;7870;52.448;13.270;2024-02-14T08:18:35;5.05;;;3.80;;
15536;SDS011;7870;52.448;13.270;2024-02-14T08:21:02;8.43;;;3.70;;
15536;SDS011;7870;52.448;13.270;2024-02-14T08:23:31;11.70;;;4.53;;
15536;SDS011;7870;52.448;13.270;2024-02-14T08:25:58;6.28;;;3.45;;
15536;SDS011;7870;52.448;13.270;2024-02-14T08:28:24;5.93;;;3.88;;
15536;SDS011;7870;52.448;13.270;2024-02-14T08:30:51;4.20;;;3.35;;
15536;SDS011;7870;52.448;13.270;2024-02-14T08:33:17;6.53;;;3.42;;
15536;SDS011;7870;52.448;13.270;2024-02-14T08:35:44;4.85;;;3.13;;
15536;SDS011;7870;52.448;13.270;2024-02-14T08:38:11;6.72;;;3.78;;
15536;SDS011;7870;52.448;13.270;2024-02-14T08:40:37;5.70;;;3.45;;
15536;SDS011;7870;52.448;13.270;2024-02-14T08:43:04;6.28;;;3.50;;
15536;SDS011;7870;52.448;13.270;2024-02-14T08:45:31;5.70;;;3.28;;
15536;SDS011;7870;52.448;13.270;2024-02-14T08:47:58;6.03;;;3.65;;
15536;SDS011;7870;52.448;13.270;2024-02-14T08:50:24;5.45;;;3.25;;
15536;SDS011;7870;52.448;13.270;2024-02-14T08:52:51;6.50;;;2.95;;
15536;SDS011;7870;52.448;13.270;2024-02-14T08:55:17;6.68;;;3.28;;
15536;SDS011;7870;52.448;13.270;2024-02-14T08:57:45;5.43;;;3.55;;
15536;SDS011;7870;52.448;13.270;2024-02-14T09:00:14;5.05;;;3.92;;
15536;SDS011;7870;52.448;13.270;2024-02-14T09:02:41;5.50;;;3.75;;
15536;SDS011;7870;52.448;13.270;2024-02-14T09:05:08;6.35;;;4.25;;
15536;SDS011;7870;52.448;13.270;2024-02-14T09:07:35;6.07;;;3.80;;
15536;SDS011;7870;52.448;13.270;2024-02-14T09:10:02;6.63;;;3.88;;
15536;SDS011;7870;52.448;13.270;2024-02-14T09:12:30;5.75;;;3.83;;
15536;SDS011;7870;52.448;13.270;2024-02-14T09:14:56;7.15;;;4.15;;
15536;SDS011;7870;52.448;13.270;2024-02-14T09:17:23;8.52;;;4.00;;
15536;SDS011;7870;52.448;13.270;2024-02-14T09:19:50;8.68;;;4.53;;
15536;SDS011;7870;52.448;13.270;2024-02-14T09:22:18;7.45;;;4.53;;
15536;SDS011;7870;52.448;13.270;2024-02-14T09:24:48;8.13;;;3.90;;
15536;SDS011;7870;52.448;13.270;2024-02-14T09:27:15;7.07;;;4.30;;
15536;SDS011;7870;52.448;13.270;2024-02-14T09:29:41;9.40;;;4.72;;
15536;SDS011;7870;52.448;13.270;2024-02-14T09:32:10;7.32;;;4.13;;
15536;SDS011;7870;52.448;13.270;2024-02-14T09:34:37;9.13;;;5.10;;
15536;SDS011;7870;52.448;13.270;2024-02-14T09:37:04;8.30;;;4.72;;
15536;SDS011;7870;52.448;13.270;2024-02-14T09:39:32;9.40;;;4.60;;
15536;SDS011;7870;52.448;13.270;2024-02-14T09:42:04;7.97;;;4.75;;
15536;SDS011;7870;52.448;13.270;2024-02-14T09:44:39;10.50;;;4.90;;
15536;SDS011;7870;52.448;13.270;2024-02-14T09:47:07;10.13;;;4.47;;
15536;SDS011;7870;52.448;13.270;2024-02-14T09:49:35;9.80;;;5.43;;
15536;SDS011;7870;52.448;13.270;2024-02-14T09:52:03;12.25;;;5.25;;
15536;SDS011;7870;52.448;13.270;2024-02-14T09:54:31;10.55;;;5.53;;
15536;SDS011;7870;52.448;13.270;2024-02-14T09:56:58;8.00;;;4.90;;
15536;SDS011;7870;52.448;13.270;2024-02-14T09:59:24;8.73;;;5.38;;
15536;SDS011;7870;52.448;13.270;2024-02-14T10:01:51;9.05;;;5.15;;
15536;SDS011;7870;52.448;13.270;2024-02-14T10:04:18;8.75;;;5.47;;
15536;SDS011;7870;52.448;13.270;2024-02-14T10:06:50;8.82;;;5.57;;
15536;SDS011;7870;52.448;13.270;2024-02-14T10:09:20;10.40;;;4.68;;
15536;SDS011;7870;52.448;13.270;2024-02-14T10:14:15;8.57;;;4.60;;
15536;SDS011;7870;52.448;13.270;2024-02-14T10:16:42;7.18;;;4.90;;
15536;SDS011;7870;52.448;13.270;2024-02-14T10:19:18;6.15;;;4.72;;
15536;SDS011;7870;52.448;13.270;2024-02-14T10:21:57;6.63;;;4.00;;
15536;SDS011;7870;52.448;13.270;2024-02-14T10:24:25;11.07;;;4.15;;
15536;SDS011;7870;52.448;13.270;2024-02-14T10:26:53;7.40;;;4.55;;
15536;SDS011;7870;52.448;13.270;2024-02-14T10:29:20;9.13;;;4.45;;
15536;SDS011;7870;52.448;13.270;2024-02-14T10:31:47;9.13;;;4.53;;
15536;SDS011;7870;52.448;13.270;2024-02-14T10:34:14;8.13;;;4.97;;
15536;SDS011;7870;52.448;13.270;2024-02-14T10:36:44;6.53;;;4.38;;
15536;SDS011;7870;52.448;13.270;2024-02-14T10:39:11;8.10;;;3.88;;
15536;SDS011;7870;52.448;13.270;2024-02-14T10:41:38;7.97;;;4.18;;
15536;SDS011;7870;52.448;13.270;2024-02-14T10:44:04;5.88;;;3.83;;
15536;SDS011;7870;52.448;13.270;2024-02-14T10:46:32;5.72;;;3.78;;
15536;SDS011;7870;52.448;13.270;2024-02-14T10:49:06;7.30;;;3.53;;
15536;SDS011;7870;52.448;13.270;2024-02-14T10:51:34;5.38;;;4.05;;
15536;SDS011;7870;52.448;13.270;2024-02-14T10:54:07;6.78;;;3.80;;
15536;SDS011;7870;52.448;13.270;2024-02-14T10:56:41;6.57;;;3.50;;
15536;SDS011;7870;52.448;13.270;2024-02-14T10:59:11;7.75;;;3.95;;
15536;SDS011;7870;52.448;13.270;2024-02-14T11:01:41;9.15;;;4.20;;
15536;SDS011;7870;52.448;13.270;2024-02-14T11:04:08;7.95;;;4.00;;
15536;SDS011;7870;52.448;13.270;2024-02-14T11:06:45;10.25;;;4.07;;
15536;SDS011;7870;52.448;13.270;2024-02-14T11:09:15;5.73;;;4.07;;
15536;SDS011;7870;52.448;13.270;2024-02-14T11:11:42;5.30;;;3.55;;
15536;SDS011;7870;52.448;13.270;2024-02-14T11:14:10;5.75;;;3.45;;
15536;SDS011;7870;52.448;13.270;2024-02-14T11:16:44;11.40;;;3.97;;
15536;SDS011;7870;52.448;13.270;2024-02-14T11:19:12;8.23;;;3.93;;
15536;SDS011;7870;52.448;13.270;2024-02-14T11:21:40;11.55;;;4.80;;
15536;SDS011;7870;52.448;13.270;2024-02-14T11:24:10;10.82;;;3.83;;
15536;SDS011;7870;52.448;13.270;2024-02-14T11:26:46;6.78;;;4.38;;
15536;SDS011;7870;52.448;13.270;2024-02-14T11:29:14;8.57;;;4.97;;
15536;SDS011;7870;52.448;13.270;2024-02-14T11:31:47;7.05;;;4.35;;
15536;SDS011;7870;52.448;13.270;2024-02-14T11:34:17;6.47;;;4.45;;
15536;SDS011;7870;52.448;13.270;2024-02-14T11:36:44;6.95;;;4.50;;
15536;SDS011;7870;52.448;13.270;2024-02-14T11:39:11;5.32;;;4.13;;
15536;SDS011;7870;52.448;13.270;2024-02-14T11:41:41;6.33;;;3.63;;
15536;SDS011;7870;52.448;13.270;2024-02-14T11:44:08;7.65;;;4.15;;
15536;SDS011;7870;52.448;13.270;2024-02-14T11:46:35;9.30;;;5.05;;
15536;SDS011;7870;52.448;13.270;2024-02-14T11:49:03;5.88;;;4.22;;
15536;SDS011;7870;52.448;13.270;2024-02-14T11:51:31;9.50;;;4.45;;
15536;SDS011;7870;52.448;13.270;2024-02-14T11:53:59;10.95;;;4.88;;
15536;SDS011;7870;52.448;13.270;2024-02-14T11:56:31;8.13;;;4.07;;
15536;SDS011;7870;52.448;13.270;2024-02-14T11:59:00;7.35;;;4.22;;
15536;SDS011;7870;52.448;13.270;2024-02-14T12:01:30;13.65;;;4.85;;
15536;SDS011;7870;52.448;13.270;2024-02-14T12:04:31;10.75;;;5.32;;
15536;SDS011;7870;52.448;13.270;2024-02-14T12:06:58;7.85;;;5.15;;
15536;SDS011;7870;52.448;13.270;2024-02-14T12:09:25;8.30;;;5.53;;
15536;SDS011;7870;52.448;13.270;2024-02-14T12:11:54;7.50;;;4.55;;
15536;SDS011;7870;52.448;13.270;2024-02-14T12:14:21;8.88;;;4.20;;
15536;SDS011;7870;52.448;13.270;2024-02-14T12:16:51;9.55;;;4.93;;
15536;SDS011;7870;52.448;13.270;2024-02-14T12:19:17;5.35;;;3.53;;
15536;SDS011;7870;52.448;13.270;2024-02-14T12:21:45;6.47;;;4.00;;
15536;SDS011;7870;52.448;13.270;2024-02-14T12:24:12;8.13;;;4.07;;
15536;SDS011;7870;52.448;13.270;2024-02-14T12:26:41;8.55;;;3.70;;
15536;SDS011;7870;52.448;13.270;2024-02-14T12:29:10;6.93;;;3.97;;
15536;SDS011;7870;52.448;13.270;2024-02-14T12:31:41;9.90;;;4.25;;
15536;SDS011;7870;52.448;13.270;2024-02-14T12:34:10;7.03;;;3.65;;
15536;SDS011;7870;52.448;13.270;2024-02-14T12:36:38;6.00;;;3.92;;
15536;SDS011;7870;52.448;13.270;2024-02-14T12:39:04;7.82;;;4.63;;
15536;SDS011;7870;52.448;13.270;2024-02-14T12:41:31;8.10;;;4.20;;
15536;SDS011;7870;52.448;13.270;2024-02-14T12:43:58;5.88;;;3.20;;
15536;SDS011;7870;52.448;13.270;2024-02-14T12:46:25;5.55;;;4.22;;
15536;SDS011;7870;52.448;13.270;2024-02-14T12:48:51;6.20;;;3.55;;
15536;SDS011;7870;52.448;13.270;2024-02-14T12:51:18;7.63;;;4.03;;
15536;SDS011;7870;52.448;13.270;2024-02-14T12:53:45;6.82;;;4.25;;
15536;SDS011;7870;52.448;13.270;2024-02-14T12:56:11;9.50;;;4.28;;
15536;SDS011;7870;52.448;13.270;2024-02-14T12:58:38;7.32;;;4.05;;
15536;SDS011;7870;52.448;13.270;2024-02-14T13:01:05;5.72;;;4.50;;
15536;SDS011;7870;52.448;13.270;2024-02-14T13:03:33;7.25;;;4.45;;
15536;SDS011;7870;52.448;13.270;2024-02-14T13:05:59;5.57;;;4.20;;
15536;SDS011;7870;52.448;13.270;2024-02-14T13:08:26;9.85;;;4.78;;
15536;SDS011;7870;52.448;13.270;2024-02-14T13:10:53;6.40;;;4.22;;
15536;SDS011;7870;52.448;13.270;2024-02-14T13:13:19;8.57;;;4.57;;
15536;SDS011;7870;52.448;13.270;2024-02-14T13:15:46;8.15;;;4.20;;
15536;SDS011;7870;52.448;13.270;2024-02-14T13:18:13;10.32;;;4.68;;
15536;SDS011;7870;52.448;13.270;2024-02-14T13:20:40;9.57;;;4.60;;
15536;SDS011;7870;52.448;13.270;2024-02-14T13:23:08;6.32;;;3.97;;
15536;SDS011;7870;52.448;13.270;2024-02-14T13:25:35;6.72;;;4.38;;
15536;SDS011;7870;52.448;13.270;2024-02-14T13:28:04;6.45;;;3.50;;
15536;SDS011;7870;52.448;13.270;2024-02-14T13:30:31;9.07;;;4.10;;
15536;SDS011;7870;52.448;13.270;2024-02-14T13:32:59;8.63;;;5.25;;
15536;SDS011;7870;52.448;13.270;2024-02-14T13:35:26;7.28;;;5.05;;
15536;SDS011;7870;52.448;13.270;2024-02-14T13:37:54;5.57;;;4.97;;
15536;SDS011;7870;52.448;13.270;2024-02-14T13:40:21;7.68;;;3.78;;
15536;SDS011;7870;52.448;13.270;2024-02-14T13:42:47;8.95;;;5.03;;
15536;SDS011;7870;52.448;13.270;2024-02-14T13:45:14;7.13;;;4.53;;
15536;SDS011;7870;52.448;13.270;2024-02-14T13:47:42;10.15;;;4.35;;
15536;SDS011;7870;52.448;13.270;2024-02-14T13:50:10;7.80;;;4.57;;
15536;SDS011;7870;52.448;13.270;2024-02-14T13:52:37;6.03;;;3.58;;
15536;SDS011;7870;52.448;13.270;2024-02-14T13:55:04;6.55;;;4.55;;
15536;SDS011;7870;52.448;13.270;2024-02-14T13:57:33;8.88;;;4.45;;
15536;SDS011;7870;52.448;13.270;2024-02-14T14:00:02;5.35;;;4.15;;
15536;SDS011;7870;52.448;13.270;2024-02-14T14:02:37;8.02;;;4.38;;
15536;SDS011;7870;52.448;13.270;2024-02-14T14:05:08;6.40;;;4.45;;
15536;SDS011;7870;52.448;13.270;2024-02-14T14:07:41;9.40;;;4.05;;
15536;SDS011;7870;52.448;13.270;2024-02-14T14:10:23;6.65;;;4.00;;
15536;SDS011;7870;52.448;13.270;2024-02-14T14:12:52;6.28;;;4.32;;
15536;SDS011;7870;52.448;13.270;2024-02-14T14:15:18;8.93;;;4.15;;
15536;SDS011;7870;52.448;13.270;2024-02-14T14:17:45;7.85;;;4.22;;
15536;SDS011;7870;52.448;13.270;2024-02-14T14:20:12;7.82;;;4.30;;
15536;SDS011;7870;52.448;13.270;2024-02-14T14:22:39;5.65;;;4.30;;
15536;SDS011;7870;52.448;13.270;2024-02-14T14:25:06;5.43;;;4.10;;
15536;SDS011;7870;52.448;13.270;2024-02-14T14:27:34;10.40;;;4.65;;
15536;SDS011;7870;52.448;13.270;2024-02-14T14:30:01;6.90;;;4.20;;
15536;SDS011;7870;52.448;13.270;2024-02-14T14:32:28;7.38;;;4.40;;
15536;SDS011;7870;52.448;13.270;2024-02-14T14:34:54;8.23;;;4.03;;
15536;SDS011;7870;52.448;13.270;2024-02-14T14:37:21;7.20;;;4.55;;
15536;SDS011;7870;52.448;13.270;2024-02-14T14:39:49;9.20;;;4.72;;
15536;SDS011;7870;52.448;13.270;2024-02-14T14:42:16;8.73;;;5.25;;
15536;SDS011;7870;52.448;13.270;2024-02-14T14:44:44;6.32;;;4.50;;
15536;SDS011;7870;52.448;13.270;2024-02-14T14:47:10;6.45;;;3.67;;